Currently 60°F in Anza, California, USA
60°F
62°F / 57°F
12 mph NE
0.00"
Friday, October 19, 2018 7:20 AM PDT

Anza, California Weather Summary
Last 36 Hours

Temperature Winds Hourly Humidity Dewpoint
Time Report Norm Report Norm Max Gusts Precip. Rpt. Norm Rpt. Norm Pressure
1Fri 07:20 AM  60.1°F  53°F  12 mph NE  4 mph  22 mph  0.00"  43%  64%  36°F  41°F  N/A
Fri 07:00 AM  59.5°F  53°F  13 mph NE  5 mph  26 mph  0.00"  44%  64%  36°F  40°F  N/A
Fri 06:00 AM  60.2°F  52°F  13 mph NE  5 mph  89 mph  0.00"  41%  65%  36°F  41°F  N/A
Fri 05:00 AM  60.6°F  53°F  16 mph NE  5 mph  28 mph  0.00"  40%  65%  35°F  41°F  N/A
Fri 04:00 AM  61.3°F  54°F  10 mph NE  5 mph  25 mph  0.00"  39%  65%  35°F  42°F  N/A
Fri 03:00 AM  61.5°F  54°F  14 mph NE  5 mph  26 mph  0.00"  39%  65%  35°F  42°F  N/A
Fri 02:00 AM  61.8°F  54°F  12 mph NE  5 mph  28 mph  0.00"  38%  65%  35°F  42°F  N/A
2Fri 01:43 AM  62.1°F  54°F  15 mph NE  5 mph  22 mph  ----  38%  65%  35°F  42°F  N/A
Fri 01:00 AM  61.2°F  54°F  10 mph NE  4 mph  19 mph  0.00"  39%  66%  35°F  42°F  N/A
3Fri 12:00 AM  56.6°F  54°F  4 mph E  4 mph  9 mph  0.00"  46%  66%  35°F  43°F  N/A
Thu 11:00 PM  57.2°F  55°F  calm  4 mph  9 mph  0.00"  47%  66%  36°F  43°F  N/A
Thu 10:00 PM  51.4°F  55°F  calm  4 mph  5 mph  0.00"  57%  66%  36°F  44°F  N/A
Thu 09:00 PM  54.5°F  57°F  2 mph NE  4 mph  5 mph  0.00"  52%  64%  37°F  44°F  N/A
Thu 08:00 PM  51.1°F  59°F  calm  4 mph  none  0.00"  59%  60%  37°F  45°F  N/A
Thu 07:00 PM  56.0°F  62°F  calm  5 mph  7 mph  0.00"  49%  55%  36°F  45°F  N/A
Thu 06:00 PM  65.7°F  67°F  4 mph E  6 mph  16 mph  0.00"  36%  47%  37°F  46°F  N/A
Thu 05:00 PM  68.0°F  71°F  8 mph E  8 mph  21 mph  0.00"  33%  40%  37°F  45°F  N/A
Thu 04:00 PM  69.0°F  73°F  12 mph NE  9 mph  21 mph  0.00"  31%  35%  36°F  43°F  N/A
Thu 03:00 PM  69.9°F  74°F  11 mph E  10 mph  24 mph  0.00"  31%  34%  36°F  43°F  N/A
Thu 02:00 PM  70.0°F  74°F  10 mph E  10 mph  42 mph  0.00"  31%  33%  37°F  42°F  N/A
Thu 01:00 PM  69.3°F  74°F  11 mph SE  10 mph  27 mph  0.00"  34%  32%  39°F  41°F  N/A
Thu 12:00 PM  68.8°F  73°F  7 mph E  10 mph  22 mph  0.00"  36%  33%  39°F  42°F  N/A
Thu 11:00 AM  66.9°F  72°F  11 mph NE  9 mph  22 mph  0.00"  37%  37%  39°F  43°F  N/A
Thu 10:00 AM  65.8°F  69°F  7 mph NE  8 mph  21 mph  0.00"  39%  41%  39°F  44°F  N/A
Thu 09:00 AM  62.2°F  66°F  7 mph E  7 mph  61 mph  0.00"  44%  48%  39°F  44°F  N/A
Thu 08:00 AM  59.1°F  58°F  calm  4 mph  12 mph  0.00"  48%  60%  39°F  44°F  N/A
Thu 07:43 AM  54.7°F  55°F  5 mph NE  5 mph  5 mph  0.00"  57%  63%  39°F  42°F  N/A

  1. Current weather data. No green row appears if the current weather data is also the high or low for the current day.
  2. High temperature for the current day.
  3. Low temperature for the current day.

The Anza, California weather pages are a service of WeatherCurrents. The Anza Valley is southwestern Riverside County, east of Temecula and Aguanga, south of Mount San Jacinto and west of Mount Santa Rosa.
Copyright ©Fri Oct 19 07:21:36 PDT 2018  WeatherCurrents. All rights reserved. - Submit questions and comments - Privacy Policy

This page automatically refreshes every 10 minutes.